createdAt,value
2018-04-17T00:00:50.706Z,11.03
2018-04-17T00:03:03.505Z,11.30
2018-04-17T00:05:16.204Z,11.77
2018-04-17T00:07:24.611Z,12.10
2018-04-17T00:09:33.174Z,10.60
2018-04-17T00:11:39.517Z,10.67
2018-04-17T00:13:47.982Z,10.57
2018-04-17T00:15:52.023Z,11.17
2018-04-17T00:17:56.136Z,12.03
2018-04-17T00:20:00.164Z,11.00
2018-04-17T00:22:08.618Z,11.53
2018-04-17T00:24:12.719Z,11.90
2018-04-17T00:26:27.706Z,10.77
2018-04-17T00:28:33.958Z,11.50
2018-04-17T00:30:49.247Z,10.60
2018-04-17T00:33:04.565Z,10.80
2018-04-17T00:35:08.717Z,11.20
2018-04-17T00:37:17.097Z,10.70
2018-04-17T00:39:32.248Z,11.00
2018-04-17T00:41:36.448Z,10.00
2018-04-17T00:43:51.674Z,11.13
2018-04-17T00:45:58.003Z,11.23
2018-04-17T00:48:05.873Z,12.87
2018-04-17T00:50:16.727Z,13.07
2018-04-17T00:52:24.875Z,11.77
2018-04-17T00:54:35.465Z,11.77
2018-04-17T00:56:41.778Z,12.00
2018-04-17T00:58:52.354Z,12.03
2018-04-17T01:00:58.449Z,11.77
2018-04-17T01:03:04.700Z,12.00
2018-04-17T01:05:10.865Z,13.27
2018-04-17T01:07:23.472Z,11.60
2018-04-17T01:09:31.900Z,11.50
2018-04-17T01:11:40.208Z,12.93
2018-04-17T01:13:44.277Z,11.77
2018-04-17T01:15:48.285Z,12.00
2018-04-17T01:17:58.884Z,12.60
2018-04-17T01:20:02.949Z,11.20
2018-04-17T01:22:13.821Z,11.00
2018-04-17T01:24:21.980Z,11.20
2018-04-17T01:26:28.328Z,12.33
2018-04-17T01:28:39.192Z,11.50
2018-04-17T01:30:45.489Z,11.53
2018-04-17T01:32:54.008Z,11.40
2018-04-17T01:34:58.030Z,12.77
2018-04-17T01:37:08.846Z,14.20
2018-04-17T01:39:17.397Z,11.93
2018-04-17T01:41:21.466Z,11.60
2018-04-17T01:43:25.569Z,12.50
2018-04-17T01:45:31.541Z,12.60
2018-04-17T01:47:37.729Z,11.77
2018-04-17T01:49:41.859Z,12.37
2018-04-17T01:51:50.512Z,12.90
2018-04-17T01:53:56.751Z,11.90
2018-04-17T01:56:05.214Z,11.70
2018-04-17T01:58:13.824Z,12.60
2018-04-17T02:00:26.585Z,12.07
2018-04-17T02:02:32.643Z,12.33
2018-04-17T02:04:45.439Z,13.10
2018-04-17T02:06:51.794Z,13.20
2018-04-17T02:08:58.175Z,12.93
2018-04-17T02:11:04.246Z,13.73
2018-04-17T02:13:08.400Z,14.80
2018-04-17T02:15:14.417Z,14.37
2018-04-17T02:17:22.952Z,15.47
2018-04-17T02:19:26.988Z,13.90
2018-04-17T02:21:33.301Z,13.77
2018-04-17T02:23:39.714Z,14.17
2018-04-17T02:25:46.111Z,13.57
2018-04-17T02:27:52.420Z,14.53
2018-04-17T02:29:58.782Z,13.60
2018-04-17T02:32:07.059Z,14.37
2018-04-17T02:34:17.903Z,15.07
2018-04-17T02:36:30.754Z,14.47
2018-04-17T02:38:38.921Z,14.73
2018-04-17T02:40:49.513Z,12.40
2018-04-17T02:42:57.793Z,14.30
2018-04-17T02:45:04.020Z,14.13
2018-04-17T02:47:12.602Z,14.40
2018-04-17T02:49:23.108Z,13.67
2018-04-17T02:51:29.594Z,16.13
2018-04-17T02:53:35.623Z,14.50
2018-04-17T02:55:46.162Z,15.27
2018-04-17T02:57:50.315Z,13.67
2018-04-17T03:00:03.043Z,15.40
2018-04-17T03:02:13.518Z,13.80
2018-04-17T03:04:17.613Z,14.17
2018-04-17T03:06:23.787Z,14.27
2018-04-17T03:08:34.324Z,15.00
2018-04-17T03:10:40.640Z,15.30
2018-04-17T03:12:49.171Z,14.27
2018-04-17T03:14:53.277Z,14.33
2018-04-17T03:16:57.320Z,16.27
2018-04-17T03:19:01.421Z,14.63
2018-04-17T03:21:05.688Z,14.90
2018-04-17T03:23:13.975Z,14.70
2018-04-17T03:25:18.028Z,14.83
2018-04-17T03:27:22.208Z,14.73
2018-04-17T03:29:26.319Z,14.57
2018-04-17T03:31:37.206Z,14.47
2018-04-17T03:33:43.566Z,14.43
2018-04-17T03:35:47.605Z,14.30
2018-04-17T03:37:56.141Z,14.30
2018-04-17T03:40:00.180Z,15.73
2018-04-17T03:42:08.513Z,14.10
2018-04-17T03:44:17.282Z,14.50
2018-04-17T03:46:27.918Z,14.93
2018-04-17T03:48:40.719Z,14.87
2018-04-17T03:50:51.432Z,14.17
2018-04-17T03:52:55.564Z,13.87
2018-04-17T03:55:01.862Z,15.50
2018-04-17T03:57:12.689Z,14.40
2018-04-17T03:59:25.855Z,15.07
2018-04-17T04:01:32.217Z,14.67
2018-04-17T04:03:36.256Z,14.67
2018-04-17T04:05:40.353Z,13.87
2018-04-17T04:07:49.071Z,14.90
2018-04-17T04:09:55.305Z,14.90
2018-04-17T04:12:01.625Z,16.17
2018-04-17T04:14:05.726Z,16.70
2018-04-17T04:16:17.931Z,16.27
2018-04-17T04:18:27.988Z,15.27
2018-04-17T04:20:38.561Z,14.37
2018-04-17T04:22:49.250Z,14.70
2018-04-17T04:24:59.298Z,16.07
2018-04-17T04:27:06.396Z,14.80
2018-04-17T04:29:14.715Z,16.07
2018-04-17T04:31:23.340Z,14.97
2018-04-17T04:33:29.620Z,16.37
2018-04-17T04:35:38.236Z,18.70
2018-04-17T04:37:48.905Z,17.00
2018-04-17T04:39:55.237Z,16.57
2018-04-17T04:42:02.646Z,17.40
2018-04-17T04:44:09.027Z,15.27
2018-04-17T04:46:15.270Z,15.33
2018-04-17T04:48:21.594Z,14.00
2018-04-17T04:50:38.621Z,15.33
2018-04-17T04:52:53.575Z,14.37
2018-04-17T04:54:59.435Z,15.70
2018-04-17T04:57:05.815Z,16.50
2018-04-17T04:59:12.098Z,14.60
2018-04-17T05:01:16.155Z,16.10
2018-04-17T05:03:20.308Z,17.00
2018-04-17T05:05:28.846Z,16.83
2018-04-17T05:07:39.582Z,16.60
2018-04-17T05:09:46.196Z,17.70
2018-04-17T05:11:54.412Z,16.47
2018-04-17T05:14:00.796Z,16.33
2018-04-17T05:16:11.656Z,16.63
2018-04-17T05:18:22.458Z,15.90
2018-04-17T05:20:28.800Z,17.03
2018-04-17T05:22:32.834Z,15.67
2018-04-17T05:24:36.853Z,15.60
2018-04-17T05:26:47.847Z,15.90
2018-04-17T05:28:55.028Z,16.23
2018-04-17T05:31:03.153Z,16.00
2018-04-17T05:33:13.643Z,16.70
2018-04-17T05:35:17.703Z,15.83
2018-04-17T05:37:30.639Z,16.70
2018-04-17T05:39:34.757Z,16.07
2018-04-17T05:41:38.811Z,15.80
2018-04-17T05:43:47.295Z,15.80
2018-04-17T05:45:58.176Z,14.60
2018-04-17T05:48:06.652Z,15.00
2018-04-17T05:50:12.994Z,13.80
2018-04-17T05:52:17.056Z,15.20
2018-04-17T05:54:23.401Z,13.80
2018-04-17T05:56:31.971Z,13.97
2018-04-17T05:58:44.740Z,14.00
2018-04-17T06:00:48.842Z,14.80
2018-04-17T06:03:01.532Z,14.30
2018-04-17T06:05:08.305Z,14.90
2018-04-17T06:07:14.375Z,16.13
2018-04-17T06:09:22.783Z,15.13
2018-04-17T06:11:31.357Z,14.77
2018-04-17T06:13:37.364Z,15.10
2018-04-17T06:15:41.439Z,14.50
2018-04-17T06:17:45.487Z,14.57
2018-04-17T06:19:56.021Z,14.50
2018-04-17T06:22:02.325Z,14.93
2018-04-17T06:24:12.812Z,15.57
2018-04-17T06:26:22.982Z,15.63
2018-04-17T06:28:29.309Z,15.77
2018-04-17T06:30:33.368Z,16.63
2018-04-17T06:32:37.548Z,15.40
2018-04-17T06:34:41.862Z,16.50
2018-04-17T06:36:54.466Z,14.50
2018-04-17T06:38:58.514Z,16.20
2018-04-17T06:41:02.591Z,15.20
2018-04-17T06:43:06.673Z,14.43
2018-04-17T06:45:10.749Z,14.40
2018-04-17T06:47:14.839Z,15.37
2018-04-17T06:49:18.927Z,15.60
2018-04-17T06:51:27.163Z,15.10
2018-04-17T06:53:31.218Z,14.83
2018-04-17T06:55:37.638Z,16.17
2018-04-17T06:57:43.955Z,15.63
2018-04-17T06:59:47.997Z,16.50
2018-04-17T07:01:53.933Z,16.30
2018-04-17T07:04:00.288Z,15.80
2018-04-17T07:06:06.581Z,15.30
2018-04-17T07:08:12.930Z,15.07
2018-04-17T07:10:19.229Z,15.27
2018-04-17T07:12:25.296Z,15.60
2018-04-17T07:14:29.387Z,17.20
2018-04-17T07:16:33.438Z,15.93
2018-04-17T07:18:37.491Z,17.43
2018-04-17T07:20:43.557Z,16.27
2018-04-17T07:22:47.572Z,16.50
2018-04-17T07:24:51.631Z,17.40
2018-04-17T07:27:02.219Z,18.00
2018-04-17T07:29:10.445Z,16.40
2018-04-17T07:31:14.524Z,16.20
2018-04-17T07:33:18.549Z,18.30
2018-04-17T07:35:24.925Z,17.33
2018-04-17T07:37:33.524Z,17.13
2018-04-17T07:39:37.602Z,17.77
2018-04-17T07:41:43.567Z,15.37
2018-04-17T07:43:47.691Z,18.13
2018-04-17T07:45:54.046Z,17.40
2018-04-17T07:48:04.004Z,16.97
2018-04-17T07:50:10.319Z,16.77
2018-04-17T07:52:16.624Z,18.20
2018-04-17T07:54:22.878Z,16.60
2018-04-17T07:56:30.957Z,16.80
2018-04-17T07:58:37.209Z,17.73
2018-04-17T08:00:47.914Z,18.13
2018-04-17T08:02:54.142Z,17.37
2018-04-17T08:05:02.641Z,17.60
2018-04-17T08:07:15.515Z,18.10
2018-04-17T08:09:19.604Z,17.60
2018-04-17T08:11:30.465Z,19.27
2018-04-17T08:13:38.891Z,15.80
2018-04-17T08:15:44.954Z,18.83
2018-04-17T08:17:53.530Z,17.63
2018-04-17T08:19:59.850Z,20.00
2018-04-17T08:22:15.089Z,19.00
2018-04-17T08:24:23.640Z,17.70
2018-04-17T08:26:34.473Z,18.67
2018-04-17T08:28:42.867Z,20.23
2018-04-17T08:30:55.580Z,18.07
2018-04-17T08:33:01.817Z,18.20
2018-04-17T08:35:17.211Z,19.40
2018-04-17T08:37:21.311Z,16.57
2018-04-17T08:39:36.511Z,16.00
2018-04-17T08:41:44.898Z,16.13
2018-04-17T08:43:53.591Z,16.63
2018-04-17T08:46:02.096Z,16.37
2018-04-17T08:48:12.922Z,16.93
2018-04-17T08:50:17.036Z,16.20
2018-04-17T08:52:21.038Z,15.10
2018-04-17T08:54:25.948Z,15.33
2018-04-17T08:56:34.533Z,13.93
2018-04-17T08:58:43.099Z,15.77
2018-04-17T09:00:53.529Z,15.03
2018-04-17T09:03:01.734Z,13.43
2018-04-17T09:05:10.185Z,15.80
2018-04-17T09:07:25.194Z,15.10
2018-04-17T09:09:31.484Z,15.57
2018-04-17T09:11:35.555Z,14.73
2018-04-17T09:13:39.644Z,12.10
2018-04-17T09:15:43.689Z,10.90
2018-04-17T09:17:54.472Z,10.03
2018-04-17T09:19:58.501Z,10.50
2018-04-17T09:22:06.854Z,10.63
2018-04-17T09:24:15.276Z,7.80
2018-04-17T09:26:21.647Z,7.25
2018-04-17T09:28:27.911Z,9.50
2018-04-17T09:30:36.316Z,10.32
2018-04-17T09:32:44.860Z,8.45
2018-04-17T09:34:55.806Z,8.38
2018-04-17T09:37:04.392Z,5.80
2018-04-17T09:39:08.444Z,5.95
2018-04-17T09:41:12.571Z,6.25
2018-04-17T09:43:16.628Z,7.28
2018-04-17T09:45:20.644Z,6.87
2018-04-17T09:50:08.941Z,8.20
2018-04-17T09:52:13.014Z,8.82
2018-04-17T09:54:17.040Z,8.35
2018-04-17T09:56:21.087Z,6.35
2018-04-17T09:58:25.149Z,8.57
2018-04-17T10:00:29.172Z,8.57
2018-04-17T10:02:33.211Z,8.52
2018-04-17T10:04:37.220Z,8.52
2018-04-17T10:06:41.221Z,7.35
2018-04-17T10:08:47.531Z,9.07
2018-04-17T10:10:51.564Z,8.32
2018-04-17T10:12:55.580Z,7.10
2018-04-17T10:14:59.639Z,7.50
2018-04-17T10:17:03.673Z,7.93
2018-04-17T10:19:07.725Z,8.07
2018-04-17T10:21:11.773Z,7.47
2018-04-17T10:23:15.807Z,6.75
2018-04-17T10:25:19.843Z,6.95
2018-04-17T10:27:23.856Z,6.87
2018-04-17T10:29:27.929Z,7.10
2018-04-17T10:31:31.996Z,7.00
2018-04-17T10:33:36.016Z,7.35
2018-04-17T10:35:40.053Z,7.18
2018-04-17T10:37:44.121Z,7.57
2018-04-17T10:39:48.173Z,8.02
2018-04-17T10:41:52.198Z,7.72
2018-04-17T10:43:56.252Z,7.22
2018-04-17T10:46:00.274Z,6.78
2018-04-17T10:48:04.306Z,7.82
2018-04-17T10:50:08.430Z,7.37
2018-04-17T10:52:12.564Z,6.80
2018-04-17T10:54:16.623Z,6.28
2018-04-17T10:56:20.684Z,7.00
2018-04-17T10:58:24.699Z,7.20
2018-04-17T11:00:28.723Z,7.68
2018-04-17T11:02:32.764Z,8.30
2018-04-17T11:04:36.807Z,9.65
2018-04-17T11:06:45.344Z,9.23
2018-04-17T11:08:49.388Z,10.70
2018-04-17T11:10:55.617Z,11.40
2018-04-17T11:12:59.640Z,10.97
2018-04-17T11:15:03.681Z,11.37
2018-04-17T11:17:07.689Z,9.37
2018-04-17T11:19:11.734Z,10.10
2018-04-17T11:21:15.754Z,10.40
2018-04-17T11:23:19.779Z,11.40
2018-04-17T11:25:23.838Z,11.20
2018-04-17T11:27:27.841Z,9.80
2018-04-17T11:29:31.839Z,9.40
2018-04-17T11:31:35.899Z,9.63
2018-04-17T11:33:39.938Z,10.90
2018-04-17T11:35:43.963Z,10.00
2018-04-17T11:37:48.017Z,10.50
2018-04-17T11:39:52.040Z,11.93
2018-04-17T11:41:56.052Z,11.77
2018-04-17T11:44:00.095Z,10.67
2018-04-17T11:46:04.102Z,11.40
2018-04-17T11:48:08.155Z,11.13
2018-04-17T11:50:12.167Z,12.23
2018-04-17T11:52:16.185Z,14.00
2018-04-17T11:54:26.045Z,10.83
2018-04-17T11:56:30.076Z,10.30
2018-04-17T11:58:34.131Z,10.83
2018-04-17T12:00:38.190Z,12.13
2018-04-17T12:02:42.224Z,11.53
2018-04-17T12:04:46.269Z,11.63
2018-04-17T12:06:50.308Z,11.03
2018-04-17T12:08:54.370Z,11.20
2018-04-17T12:10:58.512Z,11.63
2018-04-17T12:13:02.552Z,13.67
2018-04-17T12:15:06.567Z,13.80
2018-04-17T12:17:10.769Z,12.57
2018-04-17T12:19:14.780Z,13.63
2018-04-17T12:21:18.814Z,13.10
2018-04-17T12:23:22.860Z,12.20
2018-04-17T12:25:26.903Z,11.90
2018-04-17T12:27:30.911Z,13.47
2018-04-17T12:29:34.961Z,12.73
2018-04-17T12:31:39.029Z,14.23
2018-04-17T12:33:43.107Z,12.30
2018-04-17T12:35:47.127Z,12.23
2018-04-17T12:37:51.168Z,12.07
2018-04-17T12:39:55.210Z,13.63
2018-04-17T12:41:59.246Z,12.23
2018-04-17T12:44:03.261Z,11.90
2018-04-17T12:46:07.297Z,11.50
2018-04-17T12:48:11.339Z,14.30
2018-04-17T12:50:15.769Z,14.17
2018-04-17T12:52:19.797Z,14.50
2018-04-17T12:54:23.822Z,13.07
2018-04-17T12:56:27.892Z,12.47
2018-04-17T12:58:31.929Z,12.37
2018-04-17T13:00:42.875Z,12.23
2018-04-17T13:02:51.447Z,12.60
2018-04-17T13:04:57.757Z,12.17
2018-04-17T13:07:01.766Z,14.07
2018-04-17T13:09:05.839Z,13.40
2018-04-17T13:11:09.871Z,14.87
2018-04-17T13:13:18.387Z,14.50
2018-04-17T13:15:24.811Z,12.27
2018-04-17T13:17:28.837Z,11.60
2018-04-17T13:19:37.370Z,12.77
2018-04-17T13:21:41.394Z,13.83
2018-04-17T13:23:45.490Z,13.30
2018-04-17T13:25:51.667Z,14.20
2018-04-17T13:27:55.751Z,14.53
2018-04-17T13:30:04.280Z,13.20
2018-04-17T13:32:10.631Z,14.07
2018-04-17T13:34:14.655Z,14.40
2018-04-17T13:36:18.694Z,14.83
2018-04-17T13:38:25.163Z,14.63
2018-04-17T13:40:40.388Z,14.30
2018-04-17T13:42:46.760Z,13.80
2018-04-17T13:44:59.891Z,14.90
2018-04-17T13:47:08.205Z,14.73
2018-04-17T13:49:16.893Z,14.57
2018-04-17T13:51:20.923Z,14.57
2018-04-17T13:53:31.337Z,14.40
2018-04-17T13:55:37.600Z,13.90
2018-04-17T13:57:43.948Z,12.60
2018-04-17T13:59:50.281Z,13.27
2018-04-17T14:01:56.679Z,13.70
2018-04-17T14:04:00.758Z,12.90
2018-04-17T14:06:04.819Z,12.57
2018-04-17T14:08:11.136Z,11.90
2018-04-17T14:10:21.872Z,12.97
2018-04-17T14:12:32.757Z,13.97
2018-04-17T14:14:36.913Z,12.80
2018-04-17T14:16:54.071Z,15.93
2018-04-17T14:19:06.594Z,13.47
2018-04-17T14:21:10.675Z,13.43
2018-04-17T14:23:16.816Z,12.83
2018-04-17T14:25:27.667Z,15.60
2018-04-17T14:27:31.826Z,12.60
2018-04-17T14:29:36.036Z,13.80
2018-04-17T14:31:48.700Z,14.30
2018-04-17T14:33:59.603Z,12.97
2018-04-17T14:36:07.787Z,13.67
2018-04-17T14:38:12.044Z,14.07
2018-04-17T14:40:18.436Z,14.10
2018-04-17T14:42:24.729Z,13.50
2018-04-17T14:44:33.034Z,13.47
2018-04-17T14:46:37.127Z,11.67
2018-04-17T14:48:51.904Z,13.17
2018-04-17T14:51:00.522Z,12.13
2018-04-17T14:53:13.339Z,13.57
2018-04-17T14:55:23.879Z,13.50
2018-04-17T14:57:32.342Z,14.00
2018-04-17T14:59:46.058Z,15.57
2018-04-17T15:01:50.123Z,13.80
2018-04-17T15:03:58.480Z,14.47
2018-04-17T15:06:04.689Z,13.20
2018-04-17T15:08:13.337Z,11.47
2018-04-17T15:10:24.033Z,12.37
2018-04-17T15:12:37.904Z,13.13
2018-04-17T15:14:42.057Z,11.50
2018-04-17T15:16:48.320Z,11.47
2018-04-17T15:18:53.415Z,10.80
2018-04-17T15:21:06.099Z,10.80
2018-04-17T15:23:14.674Z,10.80
2018-04-17T15:25:23.125Z,11.23
2018-04-17T15:27:29.504Z,12.03
2018-04-17T15:29:38.115Z,10.90
2018-04-17T15:31:46.555Z,11.30
2018-04-17T15:33:54.051Z,11.20
2018-04-17T15:36:00.452Z,12.50
2018-04-17T15:38:04.598Z,11.13
2018-04-17T15:40:08.749Z,12.10
2018-04-17T15:42:23.688Z,11.10
2018-04-17T15:44:27.816Z,10.10
2018-04-17T15:46:33.902Z,10.50
2018-04-17T15:48:38.026Z,10.30
2018-04-17T15:50:44.411Z,9.80
2018-04-17T15:52:50.668Z,11.37
2018-04-17T15:54:59.036Z,11.07
2018-04-17T15:57:05.352Z,10.33
2018-04-17T15:59:11.692Z,11.37
2018-04-17T16:01:17.734Z,9.80
2018-04-17T16:03:21.921Z,9.40
2018-04-17T16:05:30.495Z,10.60
2018-04-17T16:07:36.890Z,9.27
2018-04-17T16:09:43.174Z,9.43
2018-04-17T16:12:00.614Z,9.50
2018-04-17T16:14:04.739Z,10.83
2018-04-17T16:16:10.977Z,10.17
2018-04-17T16:18:15.122Z,11.00
2018-04-17T16:20:23.428Z,10.57
2018-04-17T16:22:29.803Z,13.00
2018-04-17T16:24:33.936Z,12.20
2018-04-17T16:26:37.976Z,10.70
2018-04-17T16:28:41.993Z,11.73
2018-04-17T16:30:46.131Z,11.00
2018-04-17T16:32:52.513Z,10.60
2018-04-17T16:34:58.848Z,10.90
2018-04-17T16:37:05.148Z,11.80
2018-04-17T16:39:09.269Z,9.83
2018-04-17T16:41:13.428Z,10.80
2018-04-17T16:43:17.461Z,9.43
2018-04-17T16:45:21.544Z,8.80
2018-04-17T16:47:29.788Z,9.30
2018-04-17T16:49:47.114Z,10.20
2018-04-17T16:51:55.744Z,9.90
2018-04-17T16:54:02.014Z,7.80
2018-04-17T16:56:08.351Z,8.13
2018-04-17T16:58:21.376Z,9.10
2018-04-17T17:00:29.618Z,9.30
2018-04-17T17:02:40.615Z,9.30
2018-04-17T17:04:46.910Z,9.47
2018-04-17T17:06:51.086Z,9.67
2018-04-17T17:09:04.204Z,9.23
2018-04-17T17:11:12.814Z,12.10
2018-04-17T17:13:21.372Z,10.80
2018-04-17T17:15:25.480Z,10.23
2018-04-17T17:17:31.873Z,11.30
2018-04-17T17:19:35.962Z,8.77
2018-04-17T17:21:44.187Z,9.50
2018-04-17T17:23:50.254Z,9.77
2018-04-17T17:25:54.564Z,11.30
2018-04-17T17:28:03.105Z,9.10
2018-04-17T17:30:07.309Z,9.93
2018-04-17T17:32:13.346Z,8.63
2018-04-17T17:34:19.678Z,9.67
2018-04-17T17:36:25.954Z,9.90
2018-04-17T17:38:32.297Z,10.63
2018-04-17T17:40:38.604Z,10.17
2018-04-17T17:42:44.868Z,10.23
2018-04-17T17:44:51.146Z,10.63
2018-04-17T17:47:06.412Z,10.03
2018-04-17T17:49:12.793Z,10.20
2018-04-17T17:51:16.822Z,9.77
2018-04-17T17:53:20.889Z,11.10
2018-04-17T17:55:33.818Z,11.63
2018-04-17T17:57:40.145Z,9.30
2018-04-17T17:59:48.790Z,10.60
2018-04-17T18:01:55.074Z,9.57
2018-04-17T18:03:59.150Z,10.10
2018-04-17T18:06:09.922Z,8.80
2018-04-17T18:08:18.590Z,8.43
2018-04-17T18:10:24.744Z,8.83
2018-04-17T18:12:41.746Z,8.60
2018-04-17T18:14:49.086Z,7.73
2018-04-17T18:16:53.442Z,8.57
2018-04-17T18:19:01.899Z,7.87
2018-04-17T18:21:10.220Z,9.57
2018-04-17T18:23:14.295Z,7.60
2018-04-17T18:25:20.540Z,8.90
2018-04-17T18:27:24.556Z,7.90
2018-04-17T18:29:28.732Z,9.00
2018-04-17T18:31:32.783Z,8.67
2018-04-17T18:33:36.876Z,10.20
2018-04-17T18:35:40.930Z,8.03
2018-04-17T18:37:47.252Z,10.30
2018-04-17T18:39:53.553Z,8.30
2018-04-17T18:41:57.598Z,9.20
2018-04-17T18:44:01.690Z,9.10
2018-04-17T18:46:05.812Z,9.23
2018-04-17T18:48:09.913Z,9.30
2018-04-17T18:50:15.961Z,9.27
2018-04-17T18:52:22.195Z,8.90
2018-04-17T18:54:26.299Z,11.13
2018-04-17T18:56:34.902Z,11.90
2018-04-17T18:58:41.369Z,12.07
2018-04-17T19:00:45.420Z,15.73
2018-04-17T19:02:49.773Z,15.17
2018-04-17T19:04:53.914Z,16.13
2018-04-17T19:07:00.165Z,14.33
2018-04-17T19:09:06.521Z,13.50
2018-04-17T19:11:15.128Z,13.23
2018-04-17T19:13:19.259Z,13.90
2018-04-17T19:15:27.800Z,13.50
2018-04-17T19:17:31.821Z,13.33
2018-04-17T19:19:44.009Z,12.20
2018-04-17T19:21:48.106Z,12.60
2018-04-17T19:23:54.692Z,12.17
2018-04-17T19:26:07.388Z,14.77
2018-04-17T19:28:13.867Z,11.23
2018-04-17T19:30:20.250Z,12.40
2018-04-17T19:32:24.405Z,12.27
2018-04-17T19:34:28.483Z,12.07
2018-04-17T19:36:39.362Z,11.30
2018-04-17T19:38:47.913Z,11.70
2018-04-17T19:40:56.534Z,12.13
2018-04-17T19:43:03.979Z,12.40
2018-04-17T19:45:12.545Z,11.87
2018-04-17T19:47:18.706Z,11.57
2018-04-17T19:49:27.596Z,12.40
2018-04-17T19:51:33.884Z,12.27
2018-04-17T19:53:42.559Z,11.60
2018-04-17T19:55:49.032Z,10.93
2018-04-17T19:57:59.869Z,11.80
2018-04-17T20:00:09.497Z,11.90
2018-04-17T20:02:20.493Z,11.43
2018-04-17T20:04:26.899Z,12.67
2018-04-17T20:06:33.222Z,11.97
2018-04-17T20:08:39.519Z,11.13
2018-04-17T20:10:50.219Z,11.20
2018-04-17T20:13:00.845Z,11.63
2018-04-17T20:15:06.840Z,11.90
2018-04-17T20:17:21.494Z,10.53
2018-04-17T20:19:28.017Z,10.97
2018-04-17T20:21:35.229Z,12.00
2018-04-17T20:23:41.355Z,10.90
2018-04-17T20:25:56.682Z,11.87
2018-04-17T20:28:07.031Z,11.80
2018-04-17T20:30:17.953Z,11.50
2018-04-17T20:32:24.184Z,11.80
2018-04-17T20:34:34.541Z,11.40
2018-04-17T20:36:44.879Z,11.87
2018-04-17T20:38:50.911Z,11.10
2018-04-17T20:40:54.995Z,12.10
2018-04-17T20:43:08.009Z,11.63
2018-04-17T20:45:14.389Z,11.07
2018-04-17T20:47:22.956Z,11.77
2018-04-17T20:49:26.991Z,11.87
2018-04-17T20:51:32.996Z,12.10
2018-04-17T20:53:41.638Z,12.30
2018-04-17T20:55:54.267Z,12.50
2018-04-17T20:57:58.420Z,12.40
2018-04-17T21:00:07.058Z,11.93
2018-04-17T21:02:22.673Z,10.67
2018-04-17T21:04:29.053Z,10.17
2018-04-17T21:06:37.656Z,11.43
2018-04-17T21:08:50.560Z,10.60
2018-04-17T21:10:56.542Z,10.23
2018-04-17T21:13:00.674Z,10.90
2018-04-17T21:15:11.499Z,11.07
2018-04-17T21:17:17.518Z,11.83
2018-04-17T21:19:26.665Z,10.83
2018-04-17T21:21:35.089Z,11.30
2018-04-17T21:23:50.449Z,10.23
2018-04-17T21:25:54.493Z,11.50
2018-04-17T21:27:58.610Z,11.43
2018-04-17T21:30:04.917Z,11.70
2018-04-17T21:32:11.257Z,10.43
2018-04-17T21:34:17.629Z,11.97
2018-04-17T21:36:23.881Z,10.90
2018-04-17T21:38:30.131Z,12.27
2018-04-17T21:40:36.170Z,11.37
2018-04-17T21:42:58.567Z,11.50
2018-04-17T21:45:07.198Z,10.90
2018-04-17T21:47:13.276Z,11.53
2018-04-17T21:49:19.574Z,12.47
2018-04-17T21:51:32.530Z,11.53
2018-04-17T21:53:40.782Z,11.30
2018-04-17T21:55:51.032Z,11.87
2018-04-17T21:57:57.401Z,10.90
2018-04-17T22:00:07.976Z,10.97
2018-04-17T22:02:14.341Z,10.10
2018-04-17T22:04:22.999Z,10.53
2018-04-17T22:06:38.327Z,10.30
2018-04-17T22:08:42.397Z,9.33
2018-04-17T22:10:48.513Z,11.13
2018-04-17T22:12:54.670Z,10.30
2018-04-17T22:15:03.220Z,10.97
2018-04-17T22:17:11.568Z,10.03
2018-04-17T22:19:17.893Z,9.83
2018-04-17T22:21:30.548Z,12.10
2018-04-17T22:23:41.263Z,10.13
2018-04-17T22:25:47.576Z,10.93
2018-04-17T22:27:51.744Z,10.50
2018-04-17T22:29:57.999Z,10.67
2018-04-17T22:32:08.554Z,11.37
2018-04-17T22:34:14.908Z,10.57
2018-04-17T22:36:23.419Z,10.60
2018-04-17T22:38:35.999Z,9.93
2018-04-17T22:40:42.405Z,11.63
2018-04-17T22:42:48.441Z,10.20
2018-04-17T22:45:01.110Z,11.13
2018-04-17T22:47:11.765Z,10.90
2018-04-17T22:51:33.011Z,11.73
2018-04-17T22:53:39.182Z,11.47
2018-04-17T22:55:47.689Z,11.43
2018-04-17T22:57:56.284Z,11.17
2018-04-17T23:00:11.526Z,12.50
2018-04-17T23:02:27.054Z,10.33
2018-04-17T23:04:33.456Z,11.50
2018-04-17T23:06:41.759Z,12.73
2018-04-17T23:08:45.925Z,12.03
2018-04-17T23:10:52.196Z,10.67
2018-04-17T23:13:07.379Z,12.40
2018-04-17T23:15:11.473Z,12.07
2018-04-17T23:17:15.631Z,11.60
2018-04-17T23:19:26.421Z,11.93
2018-04-17T23:21:32.702Z,11.37
2018-04-17T23:23:40.965Z,11.50
2018-04-17T23:25:49.343Z,11.07
2018-04-17T23:27:55.666Z,11.47
2018-04-17T23:30:04.325Z,12.00
2018-04-17T23:32:08.450Z,11.50
2018-04-17T23:34:14.754Z,10.50
2018-04-17T23:36:21.233Z,11.97
2018-04-17T23:38:31.215Z,11.60
2018-04-17T23:40:37.618Z,11.73
2018-04-17T23:42:43.848Z,11.70
2018-04-17T23:44:50.227Z,11.40
2018-04-17T23:47:02.857Z,10.80
2018-04-17T23:49:09.280Z,11.17
2018-04-17T23:51:15.291Z,10.43
2018-04-17T23:53:28.234Z,11.77
2018-04-17T23:55:34.671Z,10.80
2018-04-17T23:57:42.929Z,10.60
2018-04-17T23:59:48.919Z,11.43
